sensor_id;sensor_type;location;lat;lon;timestamp;pressure;altitude;pressure_sealevel;temperature;humidity
62976;BME280;49071;0.000;0.000;2023-08-31T05:26:06;100179.56;;;21.30;
62976;BME280;49071;0.000;0.000;2023-08-31T05:29:07;100173.72;;;21.36;
62976;BME280;49071;0.000;0.000;2023-08-31T05:32:07;100167.91;;;21.32;
62976;BME280;49071;0.000;0.000;2023-08-31T05:35:07;100186.03;;;21.35;
62976;BME280;49071;0.000;0.000;2023-08-31T05:38:07;100198.22;;;21.36;
62976;BME280;49071;0.000;0.000;2023-08-31T05:41:08;100199.53;;;21.23;
62976;BME280;49071;0.000;0.000;2023-08-31T05:44:09;100197.34;;;21.18;
62976;BME280;49071;0.000;0.000;2023-08-31T05:47:10;100193.16;;;21.25;
62976;BME280;49071;0.000;0.000;2023-08-31T05:50:10;100200.22;;;21.25;
62976;BME280;49071;0.000;0.000;2023-08-31T05:53:10;100197.34;;;21.18;
62976;BME280;49071;0.000;0.000;2023-08-31T05:56:10;100204.25;;;21.19;
62976;BME280;49071;0.000;0.000;2023-08-31T05:59:10;100197.59;;;21.25;
62976;BME280;49071;0.000;0.000;2023-08-31T06:02:11;100205.47;;;21.25;
62976;BME280;49071;0.000;0.000;2023-08-31T06:05:11;100202.72;;;21.26;
62976;BME280;49071;0.000;0.000;2023-08-31T06:08:16;100209.69;;;21.18;
62976;BME280;49071;0.000;0.000;2023-08-31T06:11:16;100209.22;;;21.22;
62976;BME280;49071;0.000;0.000;2023-08-31T06:14:16;100213.66;;;21.22;
62976;BME280;49071;0.000;0.000;2023-08-31T06:17:16;100213.91;;;21.28;
62976;BME280;49071;0.000;0.000;2023-08-31T06:20:17;100222.47;;;21.30;
62976;BME280;49071;0.000;0.000;2023-08-31T06:23:17;100216.94;;;21.33;
62976;BME280;49071;0.000;0.000;2023-08-31T06:26:17;100235.06;;;21.36;
62976;BME280;49071;0.000;0.000;2023-08-31T06:29:17;100234.38;;;21.34;
62976;BME280;49071;0.000;0.000;2023-08-31T06:32:17;100241.03;;;21.29;
62976;BME280;49071;0.000;0.000;2023-08-31T06:35:18;100241.19;;;21.27;
62976;BME280;49071;0.000;0.000;2023-08-31T06:38:19;100239.22;;;21.38;
62976;BME280;49071;0.000;0.000;2023-08-31T06:41:19;100247.84;;;21.48;
62976;BME280;49071;0.000;0.000;2023-08-31T06:44:20;100245.56;;;21.53;
62976;BME280;49071;0.000;0.000;2023-08-31T06:47:20;100241.47;;;21.51;
62976;BME280;49071;0.000;0.000;2023-08-31T06:50:20;100237.16;;;21.50;
62976;BME280;49071;0.000;0.000;2023-08-31T06:53:20;100233.88;;;21.48;
62976;BME280;49071;0.000;0.000;2023-08-31T06:56:21;100229.56;;;21.47;
62976;BME280;49071;0.000;0.000;2023-08-31T06:59:21;100236.50;;;21.48;
62976;BME280;49071;0.000;0.000;2023-08-31T07:02:21;100250.63;;;21.47;
62976;BME280;49071;0.000;0.000;2023-08-31T07:05:25;100265.47;;;21.48;
62976;BME280;49071;0.000;0.000;2023-08-31T07:08:25;100268.91;;;21.48;
62976;BME280;49071;0.000;0.000;2023-08-31T07:11:26;100279.28;;;21.50;
62976;BME280;49071;0.000;0.000;2023-08-31T07:14:27;100281.91;;;21.50;
62976;BME280;49071;0.000;0.000;2023-08-31T07:17:27;100265.97;;;21.51;
62976;BME280;49071;0.000;0.000;2023-08-31T07:20:27;100281.31;;;21.56;
62976;BME280;49071;0.000;0.000;2023-08-31T07:23:28;100268.44;;;21.53;
62976;BME280;49071;0.000;0.000;2023-08-31T07:26:28;100274.69;;;21.52;
62976;BME280;49071;0.000;0.000;2023-08-31T07:29:29;100276.63;;;21.50;
62976;BME280;49071;0.000;0.000;2023-08-31T07:32:29;100281.78;;;21.51;
62976;BME280;49071;0.000;0.000;2023-08-31T07:35:29;100281.59;;;21.53;
62976;BME280;49071;0.000;0.000;2023-08-31T07:38:30;100278.31;;;21.51;
62976;BME280;49071;0.000;0.000;2023-08-31T07:41:31;100280.25;;;21.49;
62976;BME280;49071;0.000;0.000;2023-08-31T07:44:31;100274.53;;;21.53;
62976;BME280;49071;0.000;0.000;2023-08-31T07:47:31;100273.16;;;21.32;
62976;BME280;49071;0.000;0.000;2023-08-31T07:50:31;100276.59;;;21.42;
62976;BME280;49071;0.000;0.000;2023-08-31T07:53:31;100279.81;;;21.36;
62976;BME280;49071;0.000;0.000;2023-08-31T07:56:32;100277.84;;;21.38;
62976;BME280;49071;0.000;0.000;2023-08-31T07:59:32;100283.78;;;21.40;
62976;BME280;49071;0.000;0.000;2023-08-31T08:02:32;100282.44;;;21.36;
62976;BME280;49071;0.000;0.000;2023-08-31T08:05:32;100284.06;;;21.37;
62976;BME280;49071;0.000;0.000;2023-08-31T08:08:32;100274.53;;;21.36;
62976;BME280;49071;0.000;0.000;2023-08-31T08:11:34;100284.25;;;21.36;
62976;BME280;49071;0.000;0.000;2023-08-31T08:14:34;100292.56;;;21.31;
62976;BME280;49071;0.000;0.000;2023-08-31T08:17:35;100282.88;;;21.22;
62976;BME280;49071;0.000;0.000;2023-08-31T08:20:35;100307.38;;;21.23;
62976;BME280;49071;0.000;0.000;2023-08-31T08:23:35;100307.50;;;21.31;
62976;BME280;49071;0.000;0.000;2023-08-31T08:26:35;100309.69;;;21.35;
62976;BME280;49071;0.000;0.000;2023-08-31T08:29:35;100311.94;;;21.30;
62976;BME280;49071;0.000;0.000;2023-08-31T08:32:36;100316.50;;;21.28;
62976;BME280;49071;0.000;0.000;2023-08-31T08:35:37;100321.78;;;21.28;
62976;BME280;49071;0.000;0.000;2023-08-31T08:38:37;100327.03;;;21.28;
62976;BME280;49071;0.000;0.000;2023-08-31T08:41:37;100328.00;;;21.27;
62976;BME280;49071;0.000;0.000;2023-08-31T08:44:38;100333.00;;;21.30;
62976;BME280;49071;0.000;0.000;2023-08-31T08:47:39;100324.97;;;21.32;
62976;BME280;49071;0.000;0.000;2023-08-31T08:50:39;100334.78;;;21.30;
62976;BME280;49071;0.000;0.000;2023-08-31T08:53:43;100329.28;;;21.33;
62976;BME280;49071;0.000;0.000;2023-08-31T08:56:43;100322.16;;;21.42;
62976;BME280;49071;0.000;0.000;2023-08-31T08:59:43;100325.19;;;21.38;
62976;BME280;49071;0.000;0.000;2023-08-31T09:02:43;100333.09;;;21.38;
62976;BME280;49071;0.000;0.000;2023-08-31T09:05:45;100331.84;;;21.42;
62976;BME280;49071;0.000;0.000;2023-08-31T09:08:52;100328.09;;;21.44;
62976;BME280;49071;0.000;0.000;2023-08-31T09:11:52;100333.72;;;21.49;
62976;BME280;49071;0.000;0.000;2023-08-31T09:17:59;100336.22;;;21.51;
62976;BME280;49071;0.000;0.000;2023-08-31T09:20:59;100340.63;;;21.50;
62976;BME280;49071;0.000;0.000;2023-08-31T09:24:00;100339.28;;;21.46;
62976;BME280;49071;0.000;0.000;2023-08-31T09:27:00;100352.38;;;21.29;
62976;BME280;49071;0.000;0.000;2023-08-31T09:30:00;100347.25;;;21.37;
62976;BME280;49071;0.000;0.000;2023-08-31T09:33:02;100344.25;;;21.49;
62976;BME280;49071;0.000;0.000;2023-08-31T09:36:03;100346.97;;;21.57;
62976;BME280;49071;0.000;0.000;2023-08-31T09:39:06;100345.59;;;21.53;
62976;BME280;49071;0.000;0.000;2023-08-31T09:42:06;100350.78;;;21.45;
62976;BME280;49071;0.000;0.000;2023-08-31T09:45:07;100340.75;;;21.32;
62976;BME280;49071;0.000;0.000;2023-08-31T09:48:08;100340.16;;;21.37;
62976;BME280;49071;0.000;0.000;2023-08-31T09:51:11;100345.13;;;21.40;
62976;BME280;49071;0.000;0.000;2023-08-31T09:54:13;100330.56;;;21.46;
62976;BME280;49071;0.000;0.000;2023-08-31T09:57:13;100341.78;;;21.48;
62976;BME280;49071;0.000;0.000;2023-08-31T10:00:14;100332.91;;;21.49;
62976;BME280;49071;0.000;0.000;2023-08-31T10:03:15;100338.16;;;21.49;
62976;BME280;49071;0.000;0.000;2023-08-31T10:06:16;100333.19;;;21.46;
62976;BME280;49071;0.000;0.000;2023-08-31T10:09:16;100329.88;;;21.44;
62976;BME280;49071;0.000;0.000;2023-08-31T10:12:16;100345.66;;;21.44;
62976;BME280;49071;0.000;0.000;2023-08-31T10:15:17;100345.53;;;21.45;
62976;BME280;49071;0.000;0.000;2023-08-31T10:18:17;100347.19;;;21.46;
62976;BME280;49071;0.000;0.000;2023-08-31T10:21:17;100342.16;;;21.53;
62976;BME280;49071;0.000;0.000;2023-08-31T10:24:18;100339.09;;;21.57;
62976;BME280;49071;0.000;0.000;2023-08-31T10:27:18;100343.66;;;21.55;
62976;BME280;49071;0.000;0.000;2023-08-31T10:33:22;100339.22;;;21.56;
62976;BME280;49071;0.000;0.000;2023-08-31T10:36:33;100335.47;;;21.58;
62976;BME280;49071;0.000;0.000;2023-08-31T10:39:37;100336.00;;;21.62;
62976;BME280;49071;0.000;0.000;2023-08-31T10:42:41;100327.56;;;21.58;
62976;BME280;49071;0.000;0.000;2023-08-31T10:45:44;100333.53;;;21.60;
62976;BME280;49071;0.000;0.000;2023-08-31T10:48:58;100332.38;;;21.63;
62976;BME280;49071;0.000;0.000;2023-08-31T10:52:15;100340.59;;;21.60;
62976;BME280;49071;0.000;0.000;2023-08-31T10:55:16;100338.25;;;21.57;
62976;BME280;49071;0.000;0.000;2023-08-31T10:58:17;100340.03;;;21.56;
62976;BME280;49071;0.000;0.000;2023-08-31T11:01:33;100345.06;;;21.50;
62976;BME280;49071;0.000;0.000;2023-08-31T11:04:53;100354.47;;;21.52;
62976;BME280;49071;0.000;0.000;2023-08-31T11:07:54;100355.00;;;21.56;
62976;BME280;49071;0.000;0.000;2023-08-31T11:10:56;100356.69;;;21.57;
62976;BME280;49071;0.000;0.000;2023-08-31T11:13:56;100352.84;;;21.51;
62976;BME280;49071;0.000;0.000;2023-08-31T11:16:57;100351.78;;;21.44;
62976;BME280;49071;0.000;0.000;2023-08-31T11:19:57;100353.56;;;21.44;
62976;BME280;49071;0.000;0.000;2023-08-31T11:22:57;100357.34;;;21.41;
62976;BME280;49071;0.000;0.000;2023-08-31T11:25:58;100364.97;;;21.35;
62976;BME280;49071;0.000;0.000;2023-08-31T11:28:58;100363.31;;;21.34;
62976;BME280;49071;0.000;0.000;2023-08-31T11:31:58;100364.00;;;21.36;
62976;BME280;49071;0.000;0.000;2023-08-31T11:35:02;100356.34;;;21.42;
62976;BME280;49071;0.000;0.000;2023-08-31T11:38:03;100358.69;;;21.45;
62976;BME280;49071;0.000;0.000;2023-08-31T11:41:04;100358.16;;;21.42;
62976;BME280;49071;0.000;0.000;2023-08-31T11:44:04;100356.34;;;21.42;
62976;BME280;49071;0.000;0.000;2023-08-31T11:47:05;100354.53;;;21.43;
62976;BME280;49071;0.000;0.000;2023-08-31T11:50:05;100367.47;;;21.37;
62976;BME280;49071;0.000;0.000;2023-08-31T11:53:06;100365.38;;;21.40;
62976;BME280;49071;0.000;0.000;2023-08-31T11:56:06;100372.28;;;21.41;
62976;BME280;49071;0.000;0.000;2023-08-31T11:59:08;100361.44;;;21.44;
62976;BME280;49071;0.000;0.000;2023-08-31T12:02:08;100363.66;;;21.48;
62976;BME280;49071;0.000;0.000;2023-08-31T12:05:08;100366.41;;;21.47;
62976;BME280;49071;0.000;0.000;2023-08-31T12:08:09;100362.97;;;21.46;
62976;BME280;49071;0.000;0.000;2023-08-31T12:11:09;100356.06;;;21.45;
62976;BME280;49071;0.000;0.000;2023-08-31T12:14:18;100360.09;;;21.40;
62976;BME280;49071;0.000;0.000;2023-08-31T12:17:18;100352.50;;;21.37;
62976;BME280;49071;0.000;0.000;2023-08-31T12:20:18;100358.06;;;21.34;
62976;BME280;49071;0.000;0.000;2023-08-31T12:23:24;100353.63;;;21.35;
62976;BME280;49071;0.000;0.000;2023-08-31T12:26:28;100369.13;;;21.28;
62976;BME280;49071;0.000;0.000;2023-08-31T12:29:28;100369.34;;;21.17;
62976;BME280;49071;0.000;0.000;2023-08-31T12:32:29;100364.59;;;21.21;
62976;BME280;49071;0.000;0.000;2023-08-31T12:35:30;100362.34;;;21.26;
62976;BME280;49071;0.000;0.000;2023-08-31T12:38:30;100359.44;;;21.29;
62976;BME280;49071;0.000;0.000;2023-08-31T12:41:31;100372.72;;;21.37;
62976;BME280;49071;0.000;0.000;2023-08-31T12:44:31;100362.91;;;21.29;
62976;BME280;49071;0.000;0.000;2023-08-31T12:47:31;100362.50;;;21.24;
62976;BME280;49071;0.000;0.000;2023-08-31T12:50:32;100368.47;;;21.26;
62976;BME280;49071;0.000;0.000;2023-08-31T12:53:32;100359.88;;;21.34;
62976;BME280;49071;0.000;0.000;2023-08-31T12:56:32;100370.63;;;21.40;
62976;BME280;49071;0.000;0.000;2023-08-31T12:59:32;100370.63;;;21.40;
62976;BME280;49071;0.000;0.000;2023-08-31T13:02:32;100373.72;;;21.26;
62976;BME280;49071;0.000;0.000;2023-08-31T13:05:32;100374.44;;;21.19;
62976;BME280;49071;0.000;0.000;2023-08-31T13:08:33;100372.34;;;21.22;
62976;BME280;49071;0.000;0.000;2023-08-31T13:11:33;100377.47;;;21.33;
62976;BME280;49071;0.000;0.000;2023-08-31T13:14:33;100375.19;;;21.38;
62976;BME280;49071;0.000;0.000;2023-08-31T13:17:34;100386.81;;;21.45;
62976;BME280;49071;0.000;0.000;2023-08-31T13:20:34;100382.38;;;21.45;
62976;BME280;49071;0.000;0.000;2023-08-31T13:23:36;100387.34;;;21.48;
62976;BME280;49071;0.000;0.000;2023-08-31T13:26:36;100384.56;;;21.50;
62976;BME280;49071;0.000;0.000;2023-08-31T13:29:36;100380.97;;;21.51;
62976;BME280;49071;0.000;0.000;2023-08-31T13:32:36;100373.06;;;21.51;
62976;BME280;49071;0.000;0.000;2023-08-31T13:35:36;100372.09;;;21.52;
62976;BME280;49071;0.000;0.000;2023-08-31T13:38:37;100375.53;;;21.52;
62976;BME280;49071;0.000;0.000;2023-08-31T13:41:37;100372.09;;;21.52;
62976;BME280;49071;0.000;0.000;2023-08-31T13:44:37;100371.09;;;21.53;
62976;BME280;49071;0.000;0.000;2023-08-31T13:47:37;100369.44;;;21.52;
62976;BME280;49071;0.000;0.000;2023-08-31T13:50:37;100381.63;;;21.53;
62976;BME280;49071;0.000;0.000;2023-08-31T13:53:38;100379.00;;;21.53;
62976;BME280;49071;0.000;0.000;2023-08-31T13:56:38;100380.69;;;21.54;
62976;BME280;49071;0.000;0.000;2023-08-31T13:59:38;100388.41;;;21.55;
62976;BME280;49071;0.000;0.000;2023-08-31T14:02:38;100385.78;;;21.55;
62976;BME280;49071;0.000;0.000;2023-08-31T14:05:39;100403.50;;;21.53;
62976;BME280;49071;0.000;0.000;2023-08-31T14:08:39;100399.22;;;21.52;
62976;BME280;49071;0.000;0.000;2023-08-31T14:11:40;100401.72;;;21.54;
62976;BME280;49071;0.000;0.000;2023-08-31T14:14:40;100403.38;;;21.55;
62976;BME280;49071;0.000;0.000;2023-08-31T14:17:42;100396.31;;;21.55;
62976;BME280;49071;0.000;0.000;2023-08-31T14:20:42;100400.75;;;21.55;
62976;BME280;49071;0.000;0.000;2023-08-31T14:23:42;100398.13;;;21.55;
62976;BME280;49071;0.000;0.000;2023-08-31T14:26:43;100398.94;;;21.55;
62976;BME280;49071;0.000;0.000;2023-08-31T14:29:43;100396.47;;;21.54;
62976;BME280;49071;0.000;0.000;2023-08-31T14:32:43;100403.38;;;21.55;
62976;BME280;49071;0.000;0.000;2023-08-31T14:35:43;100407.66;;;21.56;
62976;BME280;49071;0.000;0.000;2023-08-31T14:38:44;100402.41;;;21.56;
62976;BME280;49071;0.000;0.000;2023-08-31T14:41:45;100392.69;;;21.56;
62976;BME280;49071;0.000;0.000;2023-08-31T14:44:46;100402.25;;;21.57;
62976;BME280;49071;0.000;0.000;2023-08-31T14:47:46;100402.25;;;21.57;
62976;BME280;49071;0.000;0.000;2023-08-31T14:50:46;100409.34;;;21.57;
62976;BME280;49071;0.000;0.000;2023-08-31T14:53:46;100420.69;;;21.57;
62976;BME280;49071;0.000;0.000;2023-08-31T14:56:47;100416.25;;;21.58;
62976;BME280;49071;0.000;0.000;2023-08-31T14:59:47;100421.50;;;21.58;
62976;BME280;49071;0.000;0.000;2023-08-31T15:02:47;100432.88;;;21.58;
62976;BME280;49071;0.000;0.000;2023-08-31T15:05:48;100437.31;;;21.58;
62976;BME280;49071;0.000;0.000;2023-08-31T15:08:49;100448.97;;;21.55;
62976;BME280;49071;0.000;0.000;2023-08-31T15:11:49;100445.22;;;21.58;
62976;BME280;49071;0.000;0.000;2023-08-31T15:14:50;100443.41;;;21.58;
62976;BME280;49071;0.000;0.000;2023-08-31T15:17:50;100454.91;;;21.57;
62976;BME280;49071;0.000;0.000;2023-08-31T15:20:50;100459.19;;;21.58;
62976;BME280;49071;0.000;0.000;2023-08-31T15:23:50;100469.44;;;21.61;
62976;BME280;49071;0.000;0.000;2023-08-31T15:26:50;100470.25;;;21.62;
62976;BME280;49071;0.000;0.000;2023-08-31T15:29:51;100487.03;;;21.61;
62976;BME280;49071;0.000;0.000;2023-08-31T15:32:51;100482.75;;;21.60;
62976;BME280;49071;0.000;0.000;2023-08-31T15:35:51;100480.25;;;21.58;
62976;BME280;49071;0.000;0.000;2023-08-31T15:38:54;100479.44;;;21.58;
62976;BME280;49071;0.000;0.000;2023-08-31T15:41:54;100486.34;;;21.59;
62976;BME280;49071;0.000;0.000;2023-08-31T15:44:54;100486.34;;;21.59;
62976;BME280;49071;0.000;0.000;2023-08-31T15:47:55;100486.34;;;21.59;
62976;BME280;49071;0.000;0.000;2023-08-31T15:50:56;100488.03;;;21.60;
62976;BME280;49071;0.000;0.000;2023-08-31T15:53:56;100472.22;;;21.60;
62976;BME280;49071;0.000;0.000;2023-08-31T15:56:56;100486.22;;;21.60;
62976;BME280;49071;0.000;0.000;2023-08-31T15:59:59;100480.78;;;21.62;
62976;BME280;49071;0.000;0.000;2023-08-31T16:02:59;100480.94;;;21.60;
62976;BME280;49071;0.000;0.000;2023-08-31T16:06:00;100483.59;;;21.60;
62976;BME280;49071;0.000;0.000;2023-08-31T16:09:00;100472.22;;;21.60;
62976;BME280;49071;0.000;0.000;2023-08-31T16:12:01;100479.13;;;21.61;
62976;BME280;49071;0.000;0.000;2023-08-31T16:15:01;100481.78;;;21.61;
62976;BME280;49071;0.000;0.000;2023-08-31T16:18:01;100479.97;;;21.61;
62976;BME280;49071;0.000;0.000;2023-08-31T16:21:03;100481.78;;;21.61;
62976;BME280;49071;0.000;0.000;2023-08-31T16:24:04;100483.59;;;21.60;
62976;BME280;49071;0.000;0.000;2023-08-31T16:27:04;100479.97;;;21.61;
62976;BME280;49071;0.000;0.000;2023-08-31T16:30:05;100472.75;;;21.63;
62976;BME280;49071;0.000;0.000;2023-08-31T16:33:05;100473.28;;;21.66;
62976;BME280;49071;0.000;0.000;2023-08-31T16:36:05;100471.31;;;21.68;
62976;BME280;49071;0.000;0.000;2023-08-31T16:39:05;100468.41;;;21.71;
62976;BME280;49071;0.000;0.000;2023-08-31T16:42:06;100468.41;;;21.71;
62976;BME280;49071;0.000;0.000;2023-08-31T16:45:06;100469.38;;;21.70;
62976;BME280;49071;0.000;0.000;2023-08-31T16:48:07;100477.44;;;21.69;
62976;BME280;49071;0.000;0.000;2023-08-31T16:51:07;100472.19;;;21.69;
62976;BME280;49071;0.000;0.000;2023-08-31T16:54:07;100471.31;;;21.68;
62976;BME280;49071;0.000;0.000;2023-08-31T16:57:08;100469.69;;;21.67;
62976;BME280;49071;0.000;0.000;2023-08-31T17:00:08;100470.50;;;21.68;
62976;BME280;49071;0.000;0.000;2023-08-31T17:03:10;100474.94;;;21.67;
62976;BME280;49071;0.000;0.000;2023-08-31T17:06:10;100471.31;;;21.68;
62976;BME280;49071;0.000;0.000;2023-08-31T17:09:11;100472.19;;;21.69;
62976;BME280;49071;0.000;0.000;2023-08-31T17:12:11;100471.31;;;21.68;
62976;BME280;49071;0.000;0.000;2023-08-31T17:15:11;100465.22;;;21.68;
62976;BME280;49071;0.000;0.000;2023-08-31T17:18:11;100464.41;;;21.67;
62976;BME280;49071;0.000;0.000;2023-08-31T17:21:11;100461.78;;;21.67;
62976;BME280;49071;0.000;0.000;2023-08-31T17:24:12;100458.31;;;21.67;
62976;BME280;49071;0.000;0.000;2023-08-31T17:27:12;100469.69;;;21.67;
62976;BME280;49071;0.000;0.000;2023-08-31T17:30:12;100463.59;;;21.67;
62976;BME280;49071;0.000;0.000;2023-08-31T17:33:12;100459.31;;;21.66;
62976;BME280;49071;0.000;0.000;2023-08-31T17:36:12;100455.81;;;21.65;
62976;BME280;49071;0.000;0.000;2023-08-31T17:39:13;100466.34;;;21.65;
62976;BME280;49071;0.000;0.000;2023-08-31T17:42:14;100461.09;;;21.65;
62976;BME280;49071;0.000;0.000;2023-08-31T17:45:14;100466.34;;;21.65;
62976;BME280;49071;0.000;0.000;2023-08-31T17:48:14;100467.34;;;21.65;
62976;BME280;49071;0.000;0.000;2023-08-31T17:51:14;100460.41;;;21.64;
62976;BME280;49071;0.000;0.000;2023-08-31T17:54:14;100474.13;;;21.67;
62976;BME280;49071;0.000;0.000;2023-08-31T17:57:15;100471.31;;;21.68;
62976;BME280;49071;0.000;0.000;2023-08-31T18:00:15;100472.03;;;21.70;
62976;BME280;49071;0.000;0.000;2023-08-31T18:03:15;100472.72;;;21.72;
62976;BME280;49071;0.000;0.000;2023-08-31T18:06:15;100482.66;;;21.78;
62976;BME280;49071;0.000;0.000;2023-08-31T18:09:16;100487.94;;;21.78;
62976;BME280;49071;0.000;0.000;2023-08-31T18:12:16;100483.31;;;21.80;
62976;BME280;49071;0.000;0.000;2023-08-31T18:15:16;100491.09;;;21.82;
62976;BME280;49071;0.000;0.000;2023-08-31T18:18:17;100486.66;;;21.82;
62976;BME280;49071;0.000;0.000;2023-08-31T18:21:17;100491.75;;;21.84;
62976;BME280;49071;0.000;0.000;2023-08-31T18:24:18;100489.00;;;21.85;
62976;BME280;49071;0.000;0.000;2023-08-31T18:27:18;100493.56;;;21.83;
62976;BME280;49071;0.000;0.000;2023-08-31T18:30:18;100489.13;;;21.84;
62976;BME280;49071;0.000;0.000;2023-08-31T18:33:19;100493.28;;;21.86;
62976;BME280;49071;0.000;0.000;2023-08-31T18:36:20;100499.53;;;21.85;
62976;BME280;49071;0.000;0.000;2023-08-31T18:39:20;100491.47;;;21.87;
62976;BME280;49071;0.000;0.000;2023-08-31T18:42:20;100495.78;;;21.88;
62976;BME280;49071;0.000;0.000;2023-08-31T18:45:20;100492.16;;;21.89;
62976;BME280;49071;0.000;0.000;2023-08-31T18:48:21;100497.28;;;21.90;
62976;BME280;49071;0.000;0.000;2023-08-31T18:51:21;100503.69;;;21.88;
62976;BME280;49071;0.000;0.000;2023-08-31T18:54:21;100503.50;;;21.89;
62976;BME280;49071;0.000;0.000;2023-08-31T18:57:21;100506.16;;;21.89;
62976;BME280;49071;0.000;0.000;2023-08-31T19:00:21;100510.59;;;21.89;
62976;BME280;49071;0.000;0.000;2023-08-31T19:03:22;100505.84;;;21.92;
62976;BME280;49071;0.000;0.000;2023-08-31T19:06:23;100504.22;;;21.91;
62976;BME280;49071;0.000;0.000;2023-08-31T19:09:23;100513.09;;;21.90;
62976;BME280;49071;0.000;0.000;2023-08-31T19:12:23;100497.28;;;21.90;
62976;BME280;49071;0.000;0.000;2023-08-31T19:15:23;100491.16;;;21.90;
62976;BME280;49071;0.000;0.000;2023-08-31T19:18:24;100500.88;;;21.89;
62976;BME280;49071;0.000;0.000;2023-08-31T19:21:24;100513.09;;;21.90;
62976;BME280;49071;0.000;0.000;2023-08-31T19:24:25;100506.84;;;21.91;
62976;BME280;49071;0.000;0.000;2023-08-31T19:27:25;100504.88;;;21.93;
62976;BME280;49071;0.000;0.000;2023-08-31T19:30:25;100504.88;;;21.93;
62976;BME280;49071;0.000;0.000;2023-08-31T19:33:25;100510.31;;;21.92;
62976;BME280;49071;0.000;0.000;2023-08-31T19:36:25;100513.91;;;21.91;
62976;BME280;49071;0.000;0.000;2023-08-31T19:39:25;100510.47;;;21.90;
62976;BME280;49071;0.000;0.000;2023-08-31T19:42:26;100513.09;;;21.90;
62976;BME280;49071;0.000;0.000;2023-08-31T19:45:28;100530.56;;;21.91;
62976;BME280;49071;0.000;0.000;2023-08-31T19:48:29;100535.81;;;21.91;
62976;BME280;49071;0.000;0.000;2023-08-31T19:51:31;100541.09;;;21.91;
62976;BME280;49071;0.000;0.000;2023-08-31T19:54:31;100543.72;;;21.91;
62976;BME280;49071;0.000;0.000;2023-08-31T19:57:31;100539.44;;;21.90;
62976;BME280;49071;0.000;0.000;2023-08-31T20:00:31;100540.09;;;21.92;
62976;BME280;49071;0.000;0.000;2023-08-31T20:03:33;100538.59;;;21.90;
62976;BME280;49071;0.000;0.000;2023-08-31T20:06:37;100543.03;;;21.89;
62976;BME280;49071;0.000;0.000;2023-08-31T20:09:37;100548.28;;;21.89;
62976;BME280;49071;0.000;0.000;2023-08-31T20:12:38;100550.94;;;21.89;
